Time;durP1;ratioP1;P1;durP2;ratioP2;P2;SDS_P1;SDS_P2;PMS_P1;PMS_P2;Temp;Humidity;BMP_temperature;BMP_pressure;BME280_temperature;BME280_humidity;BME280_pressure;Samples;Min_cycle;Max_cycle;Signal;HPM_P1;HPM_P2
2022/12/05 00:00:23;;;;;;;11.45;2.92;;;;;;;-5.69;63.07;102578.16;1788255;80;21078;-53
2022/12/05 00:02:53;;;;;;;7.65;2.67;;;;;;;-5.73;63.13;102575.61;1788303;80;21019;-53
2022/12/05 00:05:23;;;;;;;6.10;2.65;;;;;;;-5.77;63.17;102576.15;1788369;80;21079;-53
2022/12/05 00:07:53;;;;;;;11.30;3.08;;;;;;;-5.79;63.31;102569.52;1788443;80;21463;-53
2022/12/05 00:10:23;;;;;;;7.40;2.50;;;;;;;-5.81;63.27;102566.02;1767794;80;21059;-53
2022/12/05 00:12:54;;;;;;;6.85;2.52;;;;;;;-5.83;63.42;102573.19;1782920;80;21025;-54
2022/12/05 00:15:27;;;;;;;6.85;2.37;;;;;;;-5.86;63.43;102567.02;1782951;80;21015;-53
2022/12/05 00:17:56;;;;;;;7.58;2.62;;;;;;;-5.92;63.44;102561.87;1782808;80;21020;-54
2022/12/05 00:20:25;;;;;;;4.60;2.22;;;;;;;-5.96;63.65;102561.53;1699423;84;21072;-54
2022/12/05 00:22:55;;;;;;;10.75;2.40;;;;;;;-5.93;63.64;102564.12;1627412;88;21237;-53
2022/12/05 00:25:24;;;;;;;9.15;2.47;;;;;;;-5.97;63.60;102563.31;1699764;84;21475;-53
2022/12/05 00:27:55;;;;;;;10.23;2.45;;;;;;;-6.00;63.76;102572.73;1627669;88;21669;-53
2022/12/05 00:30:25;;;;;;;7.22;2.50;;;;;;;-6.00;63.96;102562.06;1699620;84;21024;-53
2022/12/05 00:32:55;;;;;;;8.60;2.20;;;;;;;-5.99;64.06;102571.83;1627352;88;21067;-52
2022/12/05 00:35:25;;;;;;;6.90;2.47;;;;;;;-5.95;64.14;102563.28;1699649;84;21128;-53
2022/12/05 00:37:54;;;;;;;10.80;2.85;;;;;;;-5.90;64.15;102562.70;1646862;83;21015;-53
2022/12/05 00:40:23;;;;;;;8.00;2.30;;;;;;;-5.89;63.88;102563.13;1782693;79;21016;-53
2022/12/05 00:42:54;;;;;;;6.00;2.15;;;;;;;-5.94;63.86;102562.36;1782894;80;21004;-53
2022/12/05 00:45:23;;;;;;;10.58;2.90;;;;;;;-5.96;63.91;102554.86;1782975;80;21452;-53
2022/12/05 00:47:52;;;;;;;6.95;2.62;;;;;;;-5.98;64.02;102553.56;1783028;80;21027;-54
2022/12/05 00:50:22;;;;;;;5.12;2.22;;;;;;;-5.95;64.07;102550.81;1782958;80;21056;-52
2022/12/05 00:52:51;;;;;;;7.53;2.70;;;;;;;-5.98;63.98;102552.69;1763134;80;21020;-53
2022/12/05 00:55:20;;;;;;;6.22;2.50;;;;;;;-6.05;64.19;102549.30;1782974;80;21044;-52
2022/12/05 00:57:50;;;;;;;6.28;2.10;;;;;;;-6.08;64.46;102542.25;1782752;80;21396;-54
2022/12/05 01:00:21;;;;;;;12.07;2.90;;;;;;;-6.07;64.38;102540.45;1782783;80;21490;-51
2022/12/05 01:02:50;;;;;;;6.35;2.35;;;;;;;-6.14;64.41;102538.86;1782620;79;21416;-52
2022/12/05 01:05:20;;;;;;;8.13;2.65;;;;;;;-6.19;64.67;102534.97;1782946;80;21522;-53
2022/12/05 01:07:49;;;;;;;7.50;2.60;;;;;;;-6.21;64.87;102531.92;1782765;80;21408;-53
2022/12/05 01:10:19;;;;;;;6.50;2.70;;;;;;;-6.17;64.90;102526.92;1763485;80;21012;-53
2022/12/05 01:12:49;;;;;;;6.93;2.60;;;;;;;-6.21;64.96;102519.46;1763470;80;21831;-53
2022/12/05 01:15:18;;;;;;;5.42;2.42;;;;;;;-6.24;65.21;102516.87;1782704;80;21004;-54
2022/12/05 01:17:47;;;;;;;6.45;2.45;;;;;;;-6.25;65.41;102516.45;1763738;80;21055;-53
2022/12/05 01:20:17;;;;;;;10.13;2.35;;;;;;;-6.22;65.63;102513.70;1782971;80;21412;-53
2022/12/05 01:22:46;;;;;;;20.80;2.98;;;;;;;-6.18;65.60;102510.05;1782934;80;21439;-54
2022/12/05 01:25:16;;;;;;;5.45;1.95;;;;;;;-6.19;65.53;102513.63;1782906;80;21004;-53
2022/12/05 01:27:45;;;;;;;9.53;2.95;;;;;;;-6.17;65.47;102505.59;1630896;87;21075;-54
2022/12/05 01:30:16;;;;;;;7.55;2.52;;;;;;;-6.15;65.46;102503.75;1652575;87;21178;-55
2022/12/05 01:32:45;;;;;;;7.95;2.50;;;;;;;-6.19;65.39;102496.28;1652102;87;21071;-52
2022/12/05 01:35:16;;;;;;;8.38;2.95;;;;;;;-6.22;65.44;102486.15;1652417;87;21099;-53
2022/12/05 01:37:47;;;;;;;5.78;2.40;;;;;;;-6.25;65.70;102476.89;1600171;90;21173;-52
2022/12/05 01:40:17;;;;;;;10.10;2.27;;;;;;;-6.25;65.83;102479.10;1599965;88;21530;-54
2022/12/05 01:42:47;;;;;;;9.00;2.60;;;;;;;-6.22;65.97;102480.81;1599980;88;21086;-53
2022/12/05 01:45:36;;;;;;;6.45;2.52;;;;;;;-6.19;65.96;102478.06;1600159;90;21101;-54
2022/12/05 01:48:15;;;;;;;5.75;2.67;;;;;;;-6.17;66.04;102482.91;1600278;90;21050;-53
2022/12/05 01:50:44;;;;;;;7.20;2.42;;;;;;;-6.17;66.09;102479.78;1574977;90;21094;-53
2022/12/05 01:53:13;;;;;;;8.20;2.42;;;;;;;-6.13;66.17;102480.12;1684866;84;21032;-52
2022/12/05 01:55:43;;;;;;;6.85;2.58;;;;;;;-6.14;66.09;102482.37;1712638;80;21067;-52
2022/12/05 01:58:13;;;;;;;7.47;2.20;;;;;;;-6.20;66.07;102473.19;1783058;80;21019;-53
2022/12/05 02:00:47;;;;;;;8.78;2.50;;;;;;;-6.24;66.25;102470.19;1782861;80;21026;-55
2022/12/05 02:03:19;;;;;;;7.15;2.45;;;;;;;-6.25;66.45;102466.22;1782751;80;21067;-52
2022/12/05 02:05:50;;;;;;;8.00;2.47;;;;;;;-6.26;66.58;102478.69;1763536;80;21392;-52
2022/12/05 02:08:20;;;;;;;6.12;2.25;;;;;;;-6.26;66.60;102476.47;1676750;84;21063;-54
2022/12/05 02:10:54;;;;;;;6.62;2.37;;;;;;;-6.25;66.70;102484.44;1700431;84;21087;-55
2022/12/05 02:13:56;;;;;;;5.67;2.08;;;;;;;-6.21;66.77;102487.45;1701857;83;21040;-53
2022/12/05 02:16:50;;;;;;;9.08;2.50;;;;;;;-6.15;66.85;102490.41;1618608;89;21098;-52
2022/12/05 02:20:04;;;;;;;5.67;2.20;;;;;;;-6.10;66.75;102490.70;1618720;89;21067;-53
2022/12/05 02:23:07;;;;;;;5.67;2.58;;;;;;;-6.09;66.63;102488.46;1618778;88;21099;-52
2022/12/05 02:26:14;;;;;;;9.90;2.65;;;;;;;-6.11;66.62;102490.29;1618696;89;21126;-53
2022/12/05 02:29:04;;;;;;;5.40;2.20;;;;;;;-6.11;66.63;102490.29;1618894;89;21098;-53
2022/12/05 02:31:57;;;;;;;5.87;2.25;;;;;;;-6.15;66.63;102487.28;1618506;89;21472;-53
2022/12/05 02:34:33;;;;;;;7.70;2.55;;;;;;;-6.18;66.87;102491.83;1701853;84;21036;-53
2022/12/05 02:37:10;;;;;;;7.72;2.55;;;;;;;-6.21;66.91;102488.78;1701990;84;21135;-54
2022/12/05 02:39:50;;;;;;;10.05;2.50;;;;;;;-6.28;66.91;102480.52;1661830;84;21475;-52
2022/12/05 02:42:28;;;;;;;7.08;2.40;;;;;;;-6.35;67.21;102485.59;1758951;80;21079;-53
2022/12/05 02:45:06;;;;;;;6.62;2.35;;;;;;;-6.36;67.41;102494.51;1785146;80;21546;-53
2022/12/05 02:47:46;;;;;;;8.68;2.37;;;;;;;-6.35;67.45;102499.38;1785373;79;20960;-53
2022/12/05 02:50:21;;;;;;;9.98;2.50;;;;;;;-6.35;67.54;102497.59;1766088;80;21150;-53
2022/12/05 02:52:52;;;;;;;5.20;2.42;;;;;;;-6.37;67.49;102494.09;1750516;80;21063;-53
2022/12/05 02:55:22;;;;;;;8.50;2.33;;;;;;;-6.37;67.63;102494.55;1784985;80;21422;-53
2022/12/05 02:57:54;;;;;;;5.70;2.45;;;;;;;-6.40;67.66;102492.38;1785228;80;21008;-53
2022/12/05 03:00:24;;;;;;;7.60;2.58;;;;;;;-6.44;67.78;102500.48;1785063;80;21031;-54
2022/12/05 03:02:59;;;;;;;7.30;2.58;;;;;;;-6.46;67.90;102505.86;1784866;79;20980;-53
2022/12/05 03:05:46;;;;;;;6.35;2.60;;;;;;;-6.45;68.02;102501.40;1765818;80;21005;-53
2022/12/05 03:08:20;;;;;;;8.48;2.35;;;;;;;-6.44;68.09;102497.36;1785344;80;21047;-54
2022/12/05 03:10:50;;;;;;;7.50;2.42;;;;;;;-6.40;68.15;102499.50;1781735;80;21119;-52
2022/12/05 03:13:26;;;;;;;8.53;3.17;;;;;;;-6.35;68.15;102497.59;1774605;80;21420;-53
2022/12/05 03:16:06;;;;;;;5.55;2.47;;;;;;;-6.37;68.06;102494.55;1774693;81;21008;-54
2022/12/05 03:18:47;;;;;;;8.70;2.72;;;;;;;-6.42;68.14;102494.20;1774450;81;21448;-53
2022/12/05 03:21:32;;;;;;;7.90;2.60;;;;;;;-6.48;68.24;102494.35;1759532;81;21448;-52
2022/12/05 03:24:10;;;;;;;6.30;2.42;;;;;;;-6.53;68.41;102494.02;1742411;80;21490;-52
2022/12/05 03:26:52;;;;;;;9.38;2.45;;;;;;;-6.53;68.60;102503.34;1763832;81;21036;-53
2022/12/05 03:29:44;;;;;;;7.72;2.37;;;;;;;-6.53;68.70;102499.34;1774578;79;21003;-53
2022/12/05 03:32:37;;;;;;;6.25;2.40;;;;;;;-6.51;68.82;102490.39;1774365;81;21000;-54
2022/12/05 03:35:21;;;;;;;5.22;2.10;;;;;;;-6.49;68.73;102491.73;1735691;81;21459;-53
2022/12/05 03:38:10;;;;;;;7.28;2.83;;;;;;;-6.51;68.79;102486.85;1774655;81;21541;-52
2022/12/05 03:40:58;;;;;;;6.20;2.70;;;;;;;-6.53;68.92;102484.69;1774450;79;21008;-52
2022/12/05 03:43:36;;;;;;;;;;;;;;;-6.47;69.02;102477.44;1777319;80;21028;-53
2022/12/05 03:46:12;;;;;;;;;;;;;;;-6.46;68.87;102482.31;1777175;81;20146;-52
2022/12/05 03:48:55;;;;;;;8.08;2.60;;;;;;;-6.55;68.90;102475.84;1774431;81;20154;-53
2022/12/05 03:51:32;;;;;;;6.83;2.67;;;;;;;-6.61;69.20;102476.00;1774652;80;20985;-52
2022/12/05 03:54:16;;;;;;;7.28;2.72;;;;;;;-6.63;69.29;102477.82;1774105;80;21044;-53
2022/12/05 03:56:54;;;;;;;8.43;2.67;;;;;;;-6.62;69.38;102488.45;1774684;80;21432;-53
2022/12/05 03:59:37;;;;;;;9.55;2.77;;;;;;;-6.57;69.52;102483.87;1774735;80;21052;-54
2022/12/05 04:02:13;;;;;;;5.25;2.25;;;;;;;-6.55;69.35;102482.05;1763898;81;20988;-53
2022/12/05 04:04:48;;;;;;;7.12;2.47;;;;;;;-6.58;69.30;102484.80;1774494;81;21024;-53
2022/12/05 04:07:19;;;;;;;5.42;2.42;;;;;;;-6.61;69.38;102479.99;1774562;81;21490;-52
2022/12/05 04:09:55;;;;;;;7.60;2.70;;;;;;;-6.65;69.48;102479.19;1774548;80;21048;-54
2022/12/05 04:12:28;;;;;;;5.95;2.27;;;;;;;-6.64;69.60;102474.73;1785988;80;21420;-53
2022/12/05 04:15:02;;;;;;;5.47;2.52;;;;;;;-6.62;69.71;102476.45;1771134;80;21027;-53
2022/12/05 04:17:49;;;;;;;6.67;2.50;;;;;;;-6.61;69.64;102482.66;1787012;79;21016;-55
2022/12/05 04:23:13;;;;;;;5.62;2.33;;;;;;;-6.57;69.69;102479.00;1788794;79;21059;-53
2022/12/05 04:25:54;;;;;;;7.08;2.35;;;;;;;-6.59;69.79;102476.38;1788550;80;21051;-52
2022/12/05 04:28:33;;;;;;;6.55;2.22;;;;;;;-6.57;69.83;102469.67;1788334;80;21475;-52
2022/12/05 04:31:10;;;;;;;4.65;2.10;;;;;;;-6.57;69.81;102472.34;1788251;80;21465;-53
2022/12/05 04:34:00;;;;;;;7.30;2.50;;;;;;;-6.59;69.84;102473.70;1788458;80;21474;-54
2022/12/05 04:36:34;;;;;;;5.72;2.20;;;;;;;-6.60;69.96;102469.75;1788388;80;21692;-55
2022/12/05 04:39:11;;;;;;;9.33;2.15;;;;;;;-6.61;69.96;102464.00;1788373;80;21520;-53
2022/12/05 04:41:59;;;;;;;9.48;2.50;;;;;;;-6.60;70.07;102458.62;1745219;80;21071;-55
2022/12/05 04:44:37;;;;;;;4.37;2.12;;;;;;;-6.58;70.14;102461.25;1756573;80;20988;-53
2022/12/05 04:47:07;;;;;;;7.05;2.17;;;;;;;-6.62;70.05;102449.79;1771394;80;20996;-53
2022/12/05 04:49:36;;;;;;;7.85;3.30;;;;;;;-6.64;70.14;102447.63;1788476;80;20999;-53
2022/12/05 04:52:08;;;;;;;7.53;2.58;;;;;;;-6.65;70.22;102448.99;1788307;80;20988;-54
2022/12/05 04:54:54;;;;;;;5.70;2.50;;;;;;;-6.65;70.29;102456.98;1788590;80;21047;-53
2022/12/05 04:57:35;;;;;;;5.90;2.10;;;;;;;-6.61;70.41;102460.00;1788287;80;21043;-53
2022/12/05 05:00:06;;;;;;;6.28;2.37;;;;;;;-6.63;70.31;102459.16;1788261;80;21007;-52
2022/12/05 05:02:47;;;;;;;7.97;2.77;;;;;;;-6.67;70.42;102458.81;1771470;80;21544;-53
2022/12/05 05:05:17;;;;;;;7.25;2.67;;;;;;;-6.69;70.58;102451.31;1788068;80;21032;-52
2022/12/05 05:07:50;;;;;;;7.45;2.37;;;;;;;-6.72;70.73;102442.94;1788266;80;21505;-53
2022/12/05 05:10:25;;;;;;;4.70;2.05;;;;;;;-6.74;70.94;102444.77;1770720;80;21090;-53
2022/12/05 05:12:55;;;;;;;5.17;2.52;;;;;;;-6.71;71.05;102450.89;1787808;80;21056;-54
2022/12/05 05:15:26;;;;;;;6.05;2.58;;;;;;;-6.68;71.20;102443.73;1788410;79;21036;-54
2022/12/05 05:17:55;;;;;;;10.45;4.25;;;;;;;-6.63;71.29;102450.70;1788415;79;21004;-53
2022/12/05 05:20:25;;;;;;;8.20;2.70;;;;;;;-6.56;71.27;102448.30;1788231;80;21007;-56
2022/12/05 05:22:57;;;;;;;5.95;2.60;;;;;;;-6.51;71.16;102449.52;1707082;84;21463;-53
2022/12/05 05:25:29;;;;;;;9.83;2.67;;;;;;;-6.53;71.01;102449.56;1684306;83;21087;-55
2022/12/05 05:27:59;;;;;;;8.15;2.52;;;;;;;-6.54;71.17;102447.81;1707086;84;21072;-54
2022/12/05 05:30:30;;;;;;;8.88;2.87;;;;;;;-6.51;71.11;102453.52;1634620;88;21083;-59
2022/12/05 05:33:01;;;;;;;4.37;2.37;;;;;;;-6.50;71.22;102452.19;1651433;87;21095;-53
2022/12/05 05:35:31;;;;;;;7.05;2.72;;;;;;;-6.52;71.26;102451.77;1651500;87;21513;-53
2022/12/05 05:38:00;;;;;;;7.22;2.50;;;;;;;-6.60;71.49;102455.08;1583397;90;21131;-53
2022/12/05 05:40:30;;;;;;;8.98;3.08;;;;;;;-6.59;71.71;102462.17;1665505;84;21067;-52
2022/12/05 05:42:59;;;;;;;6.72;2.40;;;;;;;-6.51;71.85;102460.19;1707079;84;21044;-53
2022/12/05 05:45:29;;;;;;;7.85;2.62;;;;;;;-6.47;71.78;102460.56;1707443;84;21056;-53
2022/12/05 05:47:58;;;;;;;10.18;3.00;;;;;;;-6.44;71.93;102469.82;1587864;90;21090;-54
2022/12/05 05:50:27;;;;;;;8.28;2.80;;;;;;;-6.39;71.95;102473.25;1607911;85;21071;-53
2022/12/05 05:52:57;;;;;;;8.18;2.83;;;;;;;-6.37;71.93;102470.54;1678670;85;21439;-54
2022/12/05 05:55:26;;;;;;;7.12;3.08;;;;;;;-6.39;71.87;102483.91;1597969;90;21201;-52
2022/12/05 05:57:56;;;;;;;11.25;3.17;;;;;;;-6.38;72.00;102473.66;1597690;89;21059;-53
2022/12/05 06:00:25;;;;;;;9.15;3.12;;;;;;;-6.42;72.14;102482.66;1597890;90;21324;-54
2022/12/05 06:02:55;;;;;;;9.20;3.27;;;;;;;-6.36;72.40;102480.30;1597564;90;21075;-53
2022/12/05 06:05:24;;;;;;;9.28;3.10;;;;;;;-6.34;72.44;102482.00;1619785;84;21503;-52
2022/12/05 06:07:55;;;;;;;8.43;3.47;;;;;;;-6.32;72.53;102485.52;1707267;84;21074;-53
2022/12/05 06:10:25;;;;;;;6.50;2.95;;;;;;;-6.29;72.66;102484.09;1707157;84;21020;-54
2022/12/05 06:12:55;;;;;;;11.93;3.60;;;;;;;-6.27;72.72;102482.27;1719025;80;21535;-53
2022/12/05 06:15:25;;;;;;;12.68;4.20;;;;;;;-6.23;72.72;102484.40;1782902;79;21078;-53
2022/12/05 06:17:56;;;;;;;10.32;4.17;;;;;;;-6.14;72.83;102481.03;1782632;80;21036;-53
2022/12/05 06:20:26;;;;;;;9.60;3.75;;;;;;;-6.07;72.80;102481.75;1762991;80;21020;-52
2022/12/05 06:22:58;;;;;;;10.68;3.20;;;;;;;-6.06;72.77;102480.83;1782596;80;21016;-53
2022/12/05 06:25:28;;;;;;;13.30;4.42;;;;;;;-6.05;72.59;102471.91;1782577;80;21051;-55
2022/12/05 06:27:57;;;;;;;13.28;4.08;;;;;;;-6.09;72.62;102467.57;1782728;80;21012;-54
2022/12/05 06:30:27;;;;;;;7.15;3.30;;;;;;;-6.09;72.58;102467.11;1763304;80;21043;-54
2022/12/05 06:32:57;;;;;;;8.48;3.75;;;;;;;-6.11;72.66;102462.73;1782916;80;20972;-54
2022/12/05 06:35:26;;;;;;;11.53;4.90;;;;;;;-6.09;72.77;102464.45;1783104;80;21465;-54
2022/12/05 06:37:56;;;;;;;11.40;4.70;;;;;;;-6.04;72.79;102472.33;1699835;84;21202;-54
2022/12/05 06:40:26;;;;;;;10.15;3.60;;;;;;;-6.02;72.88;102462.95;1699847;84;21060;-53
2022/12/05 06:42:55;;;;;;;10.45;3.50;;;;;;;-6.04;72.97;102473.66;1605924;88;21491;-53
2022/12/05 06:45:25;;;;;;;9.03;3.50;;;;;;;-6.00;73.00;102465.11;1699662;84;21488;-54
2022/12/05 06:47:55;;;;;;;8.75;3.77;;;;;;;-6.00;72.91;102470.45;1699600;84;21557;-53
2022/12/05 06:50:23;;;;;;;8.15;4.00;;;;;;;-6.00;72.98;102466.45;1699535;84;21040;-53
2022/12/05 06:52:53;;;;;;;7.80;3.70;;;;;;;-5.94;73.02;102468.95;1699529;84;21095;-54
2022/12/05 06:55:24;;;;;;;9.43;4.28;;;;;;;-5.90;72.93;102466.16;1718220;80;21000;-54
2022/12/05 06:57:54;;;;;;;13.62;5.30;;;;;;;-5.87;72.85;102454.02;1782736;80;21044;-54
2022/12/05 07:03:12;;;;;;;14.90;4.72;;;;;;;-5.84;72.94;102454.43;1782759;80;21078;-55
2022/12/05 07:05:42;;;;;;;10.32;3.80;;;;;;;-5.80;72.93;102462.31;1763506;80;21534;-54
2022/12/05 07:08:11;;;;;;;11.53;3.90;;;;;;;-5.81;72.78;102451.22;1783002;80;20988;-53
2022/12/05 07:10:41;;;;;;;11.33;3.98;;;;;;;-5.78;72.80;102462.27;1782950;80;21051;-55
2022/12/05 07:13:12;;;;;;;13.68;4.50;;;;;;;-5.82;72.54;102460.60;1738740;80;21150;-53
2022/12/05 07:15:51;;;;;;;10.60;4.00;;;;;;;-5.86;72.59;102453.56;1782753;80;21122;-54
2022/12/05 07:18:22;;;;;;;8.70;4.03;;;;;;;-5.94;72.62;102463.16;1782953;79;21003;-53
2022/12/05 07:21:02;;;;;;;8.65;3.90;;;;;;;-5.99;72.94;102450.39;1699579;84;21043;-54
2022/12/05 07:23:34;;;;;;;10.10;3.85;;;;;;;-5.95;73.20;102460.53;1697707;84;21064;-53
2022/12/05 07:26:08;;;;;;;12.07;4.42;;;;;;;-5.88;73.38;102462.08;1627527;88;21079;-55
2022/12/05 07:28:38;;;;;;;13.90;4.58;;;;;;;-5.84;73.38;102451.77;1576630;91;21081;-54
2022/12/05 07:31:10;;;;;;;10.43;4.15;;;;;;;-5.84;73.36;102454.43;1571977;91;21064;-54
2022/12/05 07:33:40;;;;;;;11.75;4.03;;;;;;;-5.84;73.35;102452.64;1571809;91;21107;-55
2022/12/05 07:36:13;;;;;;;8.78;4.25;;;;;;;-5.84;73.61;102450.42;1571881;91;21048;-54
2022/12/05 07:38:44;;;;;;;11.50;4.90;;;;;;;-5.83;73.62;102447.72;1602765;87;21043;-55
2022/12/05 07:41:19;;;;;;;11.03;4.97;;;;;;;-5.79;73.77;102444.05;1699761;84;21455;-55
2022/12/05 07:43:50;;;;;;;12.60;5.17;;;;;;;-5.73;73.87;102440.32;1699562;84;21072;-53
2022/12/05 07:46:19;;;;;;;11.68;5.15;;;;;;;-5.65;73.96;102434.30;1702306;80;21016;-54
2022/12/05 07:48:49;;;;;;;10.50;4.55;;;;;;;-5.60;73.71;102436.84;1782880;80;21066;-55
2022/12/05 07:51:19;;;;;;;26.10;7.70;;;;;;;-5.61;73.63;102434.63;1763665;80;20988;-55
2022/12/05 07:53:49;;;;;;;14.68;5.17;;;;;;;-5.63;73.58;102444.48;1782802;79;20980;-55
2022/12/05 07:56:18;;;;;;;11.63;4.50;;;;;;;-5.64;73.62;102439.18;1782931;80;21452;-54
2022/12/05 07:58:48;;;;;;;13.05;5.40;;;;;;;-5.70;73.78;102441.57;1782705;80;21028;-55
2022/12/05 08:01:21;;;;;;;14.03;5.30;;;;;;;-5.66;74.07;102443.23;1763524;80;21490;-54
2022/12/05 08:03:52;;;;;;;14.87;5.20;;;;;;;-5.60;74.01;102440.38;1763865;80;21167;-54
2022/12/05 08:06:29;;;;;;;15.00;5.20;;;;;;;-5.58;74.01;102437.20;1763219;80;21020;-54
2022/12/05 08:09:00;;;;;;;15.78;6.25;;;;;;;-5.51;74.09;102437.44;1782760;80;21126;-55
2022/12/05 08:11:34;;;;;;;11.45;5.37;;;;;;;-5.48;74.04;102442.70;1738763;80;21008;-54
2022/12/05 08:14:06;;;;;;;12.15;4.97;;;;;;;-5.48;74.04;102445.36;1782860;80;21035;-54
2022/12/05 08:16:36;;;;;;;10.78;4.55;;;;;;;-5.52;74.05;102438.36;1763672;80;21000;-51
2022/12/05 08:19:07;;;;;;;11.57;5.33;;;;;;;-5.52;74.05;102438.36;1782819;80;21126;-52
2022/12/05 08:21:37;;;;;;;11.65;5.35;;;;;;;-5.54;73.85;102444.21;1763770;80;21474;-52
2022/12/05 08:24:08;;;;;;;23.32;8.55;;;;;;;-5.51;73.98;102444.12;1782848;80;21163;-52
2022/12/05 08:26:38;;;;;;;16.00;5.70;;;;;;;-5.45;74.05;102437.27;1763467;80;21111;-51
2022/12/05 08:29:13;;;;;;;15.88;5.70;;;;;;;-5.38;74.01;102436.62;1782774;80;21095;-51
2022/12/05 08:31:47;;;;;;;18.45;6.55;;;;;;;-5.38;74.06;102430.40;1763054;80;21044;-52
2022/12/05 08:34:19;;;;;;;12.70;5.30;;;;;;;-5.35;74.13;102427.17;1782862;80;21000;-51
2022/12/05 08:36:49;;;;;;;12.23;5.30;;;;;;;-5.30;74.16;102426.58;1763380;80;21029;-53
2022/12/05 08:39:22;;;;;;;16.00;5.75;;;;;;;-5.22;74.14;102427.21;1764088;80;20965;-51
2022/12/05 08:41:51;;;;;;;11.78;5.35;;;;;;;-5.19;74.11;102424.94;1763020;80;21019;-53
2022/12/05 08:44:22;;;;;;;11.60;5.35;;;;;;;-5.18;73.80;102425.35;1782622;80;21016;-52
2022/12/05 08:46:51;;;;;;;12.63;5.25;;;;;;;-5.19;73.83;102421.81;1699667;84;21020;-52
2022/12/05 08:49:21;;;;;;;10.60;4.85;;;;;;;-5.24;73.93;102422.84;1627232;88;21075;-52
2022/12/05 08:51:51;;;;;;;12.07;5.15;;;;;;;-5.24;73.93;102422.84;1676765;84;21004;-53
2022/12/05 08:54:20;;;;;;;13.05;5.47;;;;;;;-5.22;74.02;102415.19;1699545;84;21016;-52
2022/12/05 08:56:51;;;;;;;13.20;5.40;;;;;;;-5.12;74.21;102407.80;1627298;88;21659;-52
2022/12/05 08:59:21;;;;;;;13.25;5.35;;;;;;;-5.11;74.01;102414.89;1699510;84;21040;-51
2022/12/05 09:01:51;;;;;;;12.43;5.42;;;;;;;-5.14;74.01;102406.50;1699602;84;21032;-52
2022/12/05 09:04:21;;;;;;;14.87;5.50;;;;;;;-5.14;74.10;102402.50;1716913;80;20992;-51
2022/12/05 09:06:51;;;;;;;17.77;5.22;;;;;;;-5.17;74.06;102399.92;1782649;80;21008;-52
2022/12/05 09:09:22;;;;;;;14.28;5.90;;;;;;;-5.15;74.32;102390.52;1763443;80;21008;-52
2022/12/05 09:11:51;;;;;;;13.93;5.70;;;;;;;-5.09;74.45;102393.45;1782619;80;21118;-52
2022/12/05 09:14:21;;;;;;;20.15;6.87;;;;;;;-5.02;74.61;102389.66;1788117;80;21020;-53
2022/12/05 09:16:51;;;;;;;11.05;5.37;;;;;;;-5.01;74.58;102389.61;1770489;80;21083;-51
2022/12/05 09:19:22;;;;;;;15.28;5.55;;;;;;;-5.00;74.61;102382.47;1788606;80;21396;-53
2022/12/05 09:21:55;;;;;;;18.30;6.53;;;;;;;-4.95;74.68;102382.73;1788171;79;21053;-53
2022/12/05 09:24:24;;;;;;;13.13;6.47;;;;;;;-4.95;74.68;102382.73;1788107;80;21039;-53
2022/12/05 09:26:54;;;;;;;15.13;6.15;;;;;;;-4.94;74.74;102379.13;1788012;80;21039;-51
2022/12/05 09:29:24;;;;;;;16.50;6.45;;;;;;;-4.92;74.75;102383.97;1788206;80;21043;-52
2022/12/05 09:31:54;;;;;;;15.85;5.83;;;;;;;-4.83;74.64;102373.44;1770466;80;21135;-53
2022/12/05 09:34:25;;;;;;;14.78;6.05;;;;;;;-4.83;74.64;102373.44;1788332;80;21051;-52
2022/12/05 09:36:56;;;;;;;12.50;5.40;;;;;;;-4.84;74.37;102372.56;1770978;80;21016;-52
2022/12/05 09:39:29;;;;;;;11.28;5.17;;;;;;;-4.83;74.21;102366.75;1785497;79;21463;-52
2022/12/05 09:42:35;;;;;;;13.55;5.62;;;;;;;-4.85;74.09;102361.45;1766719;80;21050;-56
2022/12/05 09:45:29;;;;;;;13.43;5.20;;;;;;;-4.76;74.65;102359.39;1788871;80;20971;-53
2022/12/05 09:48:14;;;;;;;13.20;6.05;;;;;;;-4.69;74.34;102360.94;1762632;80;21007;-53
2022/12/05 09:50:51;;;;;;;14.75;5.80;;;;;;;-4.67;74.34;102357.74;1738181;80;21054;-53
2022/12/05 09:53:34;;;;;;;13.32;5.20;;;;;;;-4.66;74.30;102356.82;1789002;80;20995;-53
2022/12/05 09:56:09;;;;;;;12.98;5.95;;;;;;;-4.62;74.70;102355.79;1788635;80;21050;-53
2022/12/05 09:58:47;;;;;;;15.32;5.80;;;;;;;-4.62;74.70;102355.79;1788788;80;21477;-53
2022/12/05 10:01:57;;;;;;;12.70;5.97;;;;;;;-4.59;74.36;102343.64;1788866;80;21927;-53
2022/12/05 13:43:02;;;;;;;12.43;5.33;;;;;;;-4.61;74.66;102181.02;1844302;77;27958;-55
2022/12/05 13:45:37;;;;;;;17.85;5.33;;;;;;;-4.62;74.15;102188.16;1820112;79;21368;-54
2022/12/05 13:48:22;;;;;;;13.72;5.35;;;;;;;-4.63;73.91;102185.08;1820331;79;21145;-55
2022/12/05 13:51:19;;;;;;;10.15;3.87;;;;;;;-4.61;73.46;102187.23;1820246;79;21110;-56
2022/12/05 13:53:52;;;;;;;10.55;4.17;;;;;;;-4.67;72.66;102174.09;1820487;79;21106;-55
2022/12/05 13:56:26;;;;;;;10.60;4.20;;;;;;;-4.67;72.66;102174.09;1718439;83;21197;-56
2022/12/05 13:58:57;;;;;;;9.23;3.92;;;;;;;-4.66;72.08;102177.63;1718413;83;21581;-55
2022/12/05 14:01:47;;;;;;;10.50;4.33;;;;;;;-4.72;71.89;102173.38;1718257;83;21244;-56
2022/12/05 14:04:49;;;;;;;11.73;4.15;;;;;;;-4.74;71.98;102159.66;1718084;83;21122;-55
2022/12/05 14:07:42;;;;;;;15.08;4.83;;;;;;;-4.71;71.75;102162.23;1718374;83;21616;-56
2022/12/05 14:10:21;;;;;;;15.20;5.08;;;;;;;-4.73;71.47;102161.41;1718477;83;21161;-56
2022/12/05 14:13:00;;;;;;;8.60;3.75;;;;;;;-4.76;71.17;102155.71;1718155;83;21612;-56
2022/12/05 14:15:38;;;;;;;12.90;5.10;;;;;;;-4.76;71.17;102155.71;1810452;79;21241;-56
2022/12/05 14:18:36;;;;;;;14.83;5.30;;;;;;;-4.79;71.05;102147.80;1820046;79;21200;-54
2022/12/05 14:21:38;;;;;;;;;;;;;;;-4.79;71.05;102147.80;1822989;78;21118;-55
2022/12/05 14:24:44;;;;;;;10.50;4.60;;;;;;;-4.80;71.05;102149.61;1820287;79;20528;-54
2022/12/05 14:27:40;;;;;;;15.10;5.50;;;;;;;-4.85;71.13;102144.89;1820137;79;21149;-56
2022/12/05 14:30:25;;;;;;;15.83;6.80;;;;;;;-4.86;71.18;102141.81;1820321;79;21561;-55
2022/12/05 14:32:56;;;;;;;15.38;6.53;;;;;;;-4.87;71.18;102143.20;1820194;79;21106;-55
2022/12/05 14:35:41;;;;;;;22.37;8.35;;;;;;;-4.87;71.26;102137.39;1812762;78;21114;-55
2022/12/05 14:38:30;;;;;;;22.70;7.42;;;;;;;-4.84;71.24;102146.64;1786554;79;21101;-56
2022/12/05 14:41:29;;;;;;;17.32;6.42;;;;;;;-4.86;71.10;102133.80;1820143;78;21149;-54
2022/12/05 14:44:04;;;;;;;16.27;5.58;;;;;;;-4.86;71.10;102133.80;1819124;78;21168;-55
2022/12/05 14:46:36;;;;;;;16.73;6.10;;;;;;;-4.82;71.08;102127.41;1819530;78;21233;-55
2022/12/05 14:49:38;;;;;;;14.20;5.60;;;;;;;-4.82;70.89;102127.41;1819669;79;21102;-56
2022/12/05 14:52:10;;;;;;;15.32;5.97;;;;;;;-4.87;70.93;102123.16;1701258;82;21103;-56
2022/12/05 14:54:40;;;;;;;19.20;6.80;;;;;;;-4.87;70.78;102120.02;1756402;82;21122;-56
2022/12/05 14:57:19;;;;;;;18.23;7.17;;;;;;;-4.88;70.90;102120.95;1756552;81;21181;-55
2022/12/05 14:59:59;;;;;;;14.65;6.33;;;;;;;-4.87;70.93;102126.70;1756653;82;21111;-54
2022/12/05 15:02:36;;;;;;;15.32;6.60;;;;;;;-4.85;70.90;102130.19;1771013;80;21538;-56
2022/12/05 15:05:32;;;;;;;13.18;5.30;;;;;;;-4.83;70.68;102129.67;1799980;79;21118;-57
2022/12/05 15:08:05;;;;;;;16.48;6.42;;;;;;;-4.83;70.68;102129.67;1800114;79;21518;-56
2022/12/05 15:10:39;;;;;;;13.72;5.47;;;;;;;-4.86;70.73;102127.57;1800244;79;21138;-57
2022/12/05 15:13:19;;;;;;;15.20;5.58;;;;;;;-4.88;70.75;102128.09;1796923;80;21122;-57
2022/12/05 15:16:09;;;;;;;18.85;6.75;;;;;;;-4.94;70.56;102122.51;1799917;79;21106;-55
2022/12/05 15:18:47;;;;;;;15.53;6.20;;;;;;;-4.94;70.56;102122.51;1799537;79;21103;-57
2022/12/05 15:21:33;;;;;;;12.50;5.22;;;;;;;-4.95;70.91;102127.45;1799779;79;21122;-56
2022/12/05 15:24:27;;;;;;;21.07;6.15;;;;;;;-4.87;70.86;102124.03;1767435;81;21166;-57
2022/12/05 15:27:11;;;;;;;26.20;7.30;;;;;;;-4.82;70.71;102126.06;1845040;77;22134;-56
2022/12/05 15:29:41;;;;;;;12.58;5.42;;;;;;;-4.88;70.60;102118.27;1709746;82;21107;-55
2022/12/05 15:32:16;;;;;;;17.90;6.33;;;;;;;-4.87;70.38;102121.36;1784853;79;21135;-56
2022/12/05 15:35:05;;;;;;;13.15;5.35;;;;;;;-4.87;70.18;102116.47;1807064;79;21143;-57
2022/12/05 15:37:54;;;;;;;17.73;6.28;;;;;;;-4.87;70.18;102116.47;1738411;82;21111;-56
2022/12/05 15:40:25;;;;;;;26.62;9.33;;;;;;;-4.89;70.19;102112.98;1806966;79;21127;-57
2022/12/05 15:42:56;;;;;;;19.57;8.00;;;;;;;-4.88;71.07;102113.39;1738225;82;21131;-56